createdAt,value
2018-12-26T00:00:57.179Z,19.90
2018-12-26T00:01:57.166Z,19.70
2018-12-26T00:02:57.158Z,19.00
2018-12-26T00:03:57.145Z,18.00
2018-12-26T00:04:57.137Z,18.80
2018-12-26T00:05:57.121Z,18.80
2018-12-26T00:06:57.113Z,19.40
2018-12-26T00:07:57.099Z,19.70
2018-12-26T00:08:57.089Z,17.90
2018-12-26T00:09:57.077Z,19.70
2018-12-26T00:10:57.068Z,20.60
2018-12-26T00:11:57.053Z,19.70
2018-12-26T00:12:57.043Z,20.50
2018-12-26T00:13:57.029Z,20.50
2018-12-26T00:14:57.022Z,20.10
2018-12-26T00:15:57.007Z,20.50
2018-12-26T00:16:56.997Z,20.30
2018-12-26T00:17:56.983Z,20.90
2018-12-26T00:18:56.974Z,19.90
2018-12-26T00:19:57.063Z,19.40
2018-12-26T00:20:56.951Z,21.00
2018-12-26T00:21:56.941Z,20.30
2018-12-26T00:22:56.929Z,19.40
2018-12-26T00:23:56.954Z,20.60
2018-12-26T00:24:56.907Z,20.40
2018-12-26T00:26:01.596Z,20.90
2018-12-26T00:26:56.884Z,19.00
2018-12-26T00:27:56.872Z,19.30
2018-12-26T00:28:56.860Z,19.60
2018-12-26T00:29:56.847Z,18.70
2018-12-26T00:30:56.838Z,19.50
2018-12-26T00:31:56.825Z,18.70
2018-12-26T00:32:56.816Z,18.50
2018-12-26T00:33:56.803Z,18.80
2018-12-26T00:34:56.793Z,19.20
2018-12-26T00:35:56.781Z,20.40
2018-12-26T00:36:56.770Z,16.90
2018-12-26T00:37:56.756Z,18.60
2018-12-26T00:38:56.748Z,17.80
2018-12-26T00:39:56.734Z,19.30
2018-12-26T00:40:56.725Z,20.10
2018-12-26T00:41:56.714Z,20.30
2018-12-26T00:42:56.701Z,20.10
2018-12-26T00:43:56.688Z,20.30
2018-12-26T00:44:56.678Z,19.80
2018-12-26T00:45:56.667Z,20.70
2018-12-26T00:46:56.656Z,20.60
2018-12-26T00:47:56.643Z,20.00
2018-12-26T00:48:56.632Z,19.90
2018-12-26T00:49:56.620Z,19.80
2018-12-26T00:50:56.610Z,20.20
2018-12-26T00:51:56.598Z,18.80
2018-12-26T00:52:56.586Z,20.70
2018-12-26T00:53:56.573Z,20.40
2018-12-26T00:54:56.565Z,19.00
2018-12-26T00:55:56.558Z,18.10
2018-12-26T00:56:56.541Z,17.70
2018-12-26T00:57:56.528Z,18.30
2018-12-26T00:58:56.519Z,20.20
2018-12-26T00:59:56.506Z,17.20
2018-12-26T01:00:56.496Z,13.80
2018-12-26T01:01:56.482Z,20.60
2018-12-26T01:02:56.473Z,20.00
2018-12-26T01:03:56.477Z,20.40
2018-12-26T01:04:56.449Z,19.50
2018-12-26T01:05:56.436Z,18.90
2018-12-26T01:06:56.426Z,19.30
2018-12-26T01:07:56.414Z,20.80
2018-12-26T01:08:56.403Z,20.40
2018-12-26T01:09:56.389Z,20.60
2018-12-26T01:10:56.396Z,22.40
2018-12-26T01:11:56.372Z,22.40
2018-12-26T01:12:56.357Z,20.90
2018-12-26T01:13:56.344Z,20.20
2018-12-26T01:14:56.335Z,20.80
2018-12-26T01:15:56.322Z,19.80
2018-12-26T01:16:56.318Z,20.80
2018-12-26T01:17:58.198Z,20.30
2018-12-26T01:18:56.292Z,21.40
2018-12-26T01:19:56.277Z,21.40
2018-12-26T01:20:56.265Z,20.70
2018-12-26T01:21:56.251Z,22.00
2018-12-26T01:22:56.246Z,20.90
2018-12-26T01:23:56.228Z,19.50
2018-12-26T01:24:56.218Z,22.10
2018-12-26T01:25:56.205Z,20.80
2018-12-26T01:26:56.196Z,21.90
2018-12-26T01:27:56.202Z,20.50
2018-12-26T01:28:56.173Z,22.00
2018-12-26T01:29:56.158Z,22.20
2018-12-26T01:30:56.149Z,21.40
2018-12-26T01:31:56.136Z,22.30
2018-12-26T01:32:56.125Z,21.40
2018-12-26T01:33:56.112Z,19.90
2018-12-26T01:34:56.103Z,21.90
2018-12-26T01:35:56.231Z,23.60
2018-12-26T01:36:56.081Z,20.40
2018-12-26T01:37:56.067Z,20.90
2018-12-26T01:38:56.059Z,21.70
2018-12-26T01:39:56.044Z,22.00
2018-12-26T01:40:56.034Z,22.30
2018-12-26T01:41:56.021Z,21.40
2018-12-26T01:42:56.012Z,22.30
2018-12-26T01:43:55.998Z,21.70
2018-12-26T01:44:55.990Z,18.40
2018-12-26T01:45:55.976Z,19.50
2018-12-26T01:46:55.967Z,22.30
2018-12-26T01:47:55.952Z,20.50
2018-12-26T01:48:55.941Z,22.30
2018-12-26T01:49:55.928Z,22.40
2018-12-26T01:50:55.919Z,23.30
2018-12-26T01:51:55.906Z,22.30
2018-12-26T01:52:55.895Z,22.80
2018-12-26T01:53:55.882Z,22.50
2018-12-26T01:54:55.872Z,22.70
2018-12-26T01:55:55.859Z,21.70
2018-12-26T01:56:55.851Z,22.10
2018-12-26T01:57:55.842Z,22.90
2018-12-26T01:58:55.826Z,23.60
2018-12-26T01:59:55.813Z,24.60
2018-12-26T02:00:55.803Z,23.50
2018-12-26T02:01:55.790Z,22.10
2018-12-26T02:02:55.781Z,22.00
2018-12-26T02:03:55.767Z,24.50
2018-12-26T02:04:55.758Z,23.20
2018-12-26T02:05:55.743Z,22.00
2018-12-26T02:06:55.734Z,24.00
2018-12-26T02:07:55.722Z,24.40
2018-12-26T02:08:55.711Z,22.20
2018-12-26T02:09:55.697Z,25.10
2018-12-26T02:10:55.688Z,23.70
2018-12-26T02:11:55.675Z,24.60
2018-12-26T02:12:55.665Z,23.70
2018-12-26T02:13:55.652Z,24.60
2018-12-26T02:14:55.644Z,24.70
2018-12-26T02:15:55.630Z,24.60
2018-12-26T02:16:55.619Z,24.30
2018-12-26T02:17:55.605Z,24.60
2018-12-26T02:18:55.597Z,25.00
2018-12-26T02:19:55.585Z,24.50
2018-12-26T02:20:55.575Z,23.30
2018-12-26T02:21:55.561Z,23.30
2018-12-26T02:22:55.552Z,22.70
2018-12-26T02:23:55.538Z,20.60
2018-12-26T02:24:55.529Z,20.90
2018-12-26T02:25:55.516Z,24.60
2018-12-26T02:26:55.507Z,24.80
2018-12-26T02:27:55.493Z,21.70
2018-12-26T02:28:55.484Z,24.90
2018-12-26T02:29:55.473Z,23.00
2018-12-26T02:30:55.467Z,26.00
2018-12-26T02:31:55.464Z,23.50
2018-12-26T02:32:55.439Z,26.30
2018-12-26T02:33:55.423Z,25.80
2018-12-26T02:34:55.415Z,20.90
2018-12-26T02:35:55.403Z,23.50
2018-12-26T02:36:55.510Z,23.70
2018-12-26T02:37:55.380Z,22.60
2018-12-26T02:38:55.368Z,24.70
2018-12-26T02:39:55.356Z,24.50
2018-12-26T02:40:55.345Z,22.00
2018-12-26T02:41:55.334Z,22.90
2018-12-26T02:42:55.322Z,25.30
2018-12-26T02:43:55.309Z,25.30
2018-12-26T02:44:55.299Z,23.90
2018-12-26T02:45:55.285Z,25.70
2018-12-26T02:46:55.279Z,19.90
2018-12-26T02:47:55.263Z,25.70
2018-12-26T02:48:55.253Z,24.50
2018-12-26T02:49:55.240Z,23.90
2018-12-26T02:50:55.232Z,25.30
2018-12-26T02:51:55.217Z,26.00
2018-12-26T02:52:55.206Z,25.20
2018-12-26T02:53:55.193Z,22.40
2018-12-26T02:54:55.193Z,23.80
2018-12-26T02:55:55.191Z,25.80
2018-12-26T02:56:55.160Z,26.50
2018-12-26T02:57:55.155Z,22.20
2018-12-26T02:58:55.141Z,25.20
2018-12-26T02:59:55.127Z,27.00
2018-12-26T03:00:55.119Z,25.80
2018-12-26T03:01:55.135Z,26.30
2018-12-26T03:02:55.090Z,23.80
2018-12-26T03:03:55.077Z,24.50
2018-12-26T03:04:55.070Z,25.20
2018-12-26T03:05:55.055Z,22.70
2018-12-26T03:06:55.043Z,27.20
2018-12-26T03:07:55.031Z,25.60
2018-12-26T03:08:55.020Z,25.70
2018-12-26T03:09:55.007Z,25.30
2018-12-26T03:10:55.000Z,25.50
2018-12-26T03:11:54.983Z,24.20
2018-12-26T03:12:54.974Z,24.30
2018-12-26T03:13:54.960Z,26.60
2018-12-26T03:14:54.951Z,26.90
2018-12-26T03:15:54.937Z,25.80
2018-12-26T03:16:54.928Z,24.30
2018-12-26T03:17:54.920Z,25.50
2018-12-26T03:18:54.906Z,26.10
2018-12-26T03:19:54.892Z,27.90
2018-12-26T03:20:54.882Z,27.90
2018-12-26T03:21:54.876Z,26.30
2018-12-26T03:22:54.858Z,26.50
2018-12-26T03:23:54.846Z,26.10
2018-12-26T03:24:54.839Z,26.30
2018-12-26T03:25:54.823Z,25.80
2018-12-26T03:26:56.362Z,19.40
2018-12-26T03:27:54.798Z,26.10
2018-12-26T03:28:54.788Z,25.90
2018-12-26T03:29:54.775Z,27.40
2018-12-26T03:30:54.766Z,27.40
2018-12-26T03:31:54.753Z,26.30
2018-12-26T03:32:54.745Z,28.30
2018-12-26T03:33:54.728Z,25.60
2018-12-26T03:34:54.720Z,25.90
2018-12-26T03:35:54.705Z,27.00
2018-12-26T03:36:54.696Z,24.40
2018-12-26T03:37:54.682Z,26.80
2018-12-26T03:38:54.672Z,25.80
2018-12-26T03:39:54.662Z,26.50
2018-12-26T03:40:54.654Z,27.40
2018-12-26T03:41:54.637Z,17.60
2018-12-26T03:42:54.627Z,25.00
2018-12-26T03:43:54.613Z,26.10
2018-12-26T03:44:54.604Z,27.30
2018-12-26T03:45:54.589Z,17.90
2018-12-26T03:46:54.586Z,24.30
2018-12-26T03:47:54.566Z,17.20
2018-12-26T03:48:54.556Z,20.60
2018-12-26T03:49:54.551Z,22.80
2018-12-26T03:50:54.535Z,26.20
2018-12-26T03:51:54.522Z,25.50
2018-12-26T03:52:54.509Z,26.50
2018-12-26T03:53:54.497Z,15.70
2018-12-26T03:54:54.490Z,23.40
2018-12-26T03:55:54.474Z,22.70
2018-12-26T03:56:54.460Z,24.30
2018-12-26T03:57:54.451Z,26.40
2018-12-26T03:58:54.451Z,19.10
2018-12-26T03:59:54.523Z,27.30
2018-12-26T04:00:54.413Z,25.80
2018-12-26T04:01:54.404Z,26.20
2018-12-26T04:02:54.389Z,22.90
2018-12-26T04:03:54.380Z,25.80
2018-12-26T04:04:54.365Z,27.50
2018-12-26T04:05:54.362Z,27.00
2018-12-26T04:06:54.342Z,27.40
2018-12-26T04:07:54.334Z,22.10
2018-12-26T04:08:54.317Z,25.50
2018-12-26T04:09:54.308Z,25.40
2018-12-26T04:10:54.294Z,17.80
2018-12-26T04:11:54.285Z,18.80
2018-12-26T04:12:54.270Z,24.20
2018-12-26T04:13:54.260Z,20.20
2018-12-26T04:14:54.249Z,19.80
2018-12-26T04:15:54.238Z,20.10
2018-12-26T04:16:54.222Z,26.50
2018-12-26T04:17:54.214Z,26.60
2018-12-26T04:18:54.199Z,23.10
2018-12-26T04:19:54.189Z,28.00
2018-12-26T04:20:54.174Z,14.70
2018-12-26T04:21:54.165Z,24.00
2018-12-26T04:22:54.151Z,26.70
2018-12-26T04:23:54.140Z,24.00
2018-12-26T04:24:54.129Z,19.10
2018-12-26T04:25:54.116Z,19.00
2018-12-26T04:26:54.103Z,22.50
2018-12-26T04:27:54.095Z,24.40
2018-12-26T04:28:54.080Z,28.10
2018-12-26T04:29:54.069Z,25.40
2018-12-26T04:30:54.054Z,24.10
2018-12-26T04:31:54.044Z,23.40
2018-12-26T04:32:54.029Z,25.80
2018-12-26T04:33:54.019Z,29.40
2018-12-26T04:34:54.011Z,25.40
2018-12-26T04:35:53.997Z,23.90
2018-12-26T04:36:53.981Z,22.30
2018-12-26T04:37:53.971Z,21.20
2018-12-26T04:38:53.957Z,24.80
2018-12-26T04:39:53.947Z,26.70
2018-12-26T04:40:53.934Z,23.00
2018-12-26T04:41:53.924Z,25.60
2018-12-26T04:42:53.909Z,27.00
2018-12-26T04:43:53.901Z,17.90
2018-12-26T04:44:53.889Z,18.30
2018-12-26T04:45:53.875Z,23.50
2018-12-26T04:46:53.861Z,24.50
2018-12-26T04:47:53.853Z,25.60
2018-12-26T04:48:53.837Z,26.30
2018-12-26T04:49:53.830Z,24.70
2018-12-26T04:50:53.813Z,21.40
2018-12-26T04:51:53.804Z,27.20
2018-12-26T04:52:53.791Z,20.10
2018-12-26T04:53:53.780Z,27.30
2018-12-26T04:54:53.774Z,27.50
2018-12-26T04:55:53.755Z,25.40
2018-12-26T04:56:53.741Z,29.60
2018-12-26T04:57:53.732Z,28.20
2018-12-26T04:58:53.725Z,27.30
2018-12-26T04:59:53.711Z,28.20
2018-12-26T05:00:53.693Z,28.70
2018-12-26T05:01:53.683Z,27.80
2018-12-26T05:02:53.675Z,28.10
2018-12-26T05:03:53.661Z,29.40
2018-12-26T05:04:53.645Z,28.60
2018-12-26T05:05:53.640Z,26.60
2018-12-26T05:06:53.633Z,25.00
2018-12-26T05:07:53.613Z,26.90
2018-12-26T05:08:53.598Z,29.60
2018-12-26T05:09:53.592Z,25.90
2018-12-26T05:10:53.578Z,28.60
2018-12-26T05:11:53.581Z,26.70
2018-12-26T05:12:53.552Z,28.40
2018-12-26T05:13:53.542Z,27.40
2018-12-26T05:14:53.535Z,23.90
2018-12-26T05:15:53.520Z,28.80
2018-12-26T05:16:53.507Z,29.30
2018-12-26T05:17:53.495Z,27.10
2018-12-26T05:18:53.526Z,26.30
2018-12-26T05:19:53.473Z,28.40
2018-12-26T05:20:53.457Z,27.50
2018-12-26T05:21:53.452Z,25.90
2018-12-26T05:22:53.434Z,24.60
2018-12-26T05:23:53.425Z,29.10
2018-12-26T05:24:53.411Z,30.30
2018-12-26T05:25:53.401Z,28.00
2018-12-26T05:26:53.462Z,28.20
2018-12-26T05:27:53.378Z,28.80
2018-12-26T05:28:53.364Z,28.40
2018-12-26T05:29:53.354Z,28.80
2018-12-26T05:30:53.340Z,29.20
2018-12-26T05:31:53.332Z,29.10
2018-12-26T05:32:53.317Z,27.90
2018-12-26T05:33:53.308Z,25.90
2018-12-26T05:34:53.294Z,19.10
2018-12-26T05:35:53.285Z,19.50
2018-12-26T05:36:53.270Z,27.90
2018-12-26T05:37:53.261Z,27.70
2018-12-26T05:38:53.284Z,29.40
2018-12-26T05:39:53.238Z,27.50
2018-12-26T05:40:53.223Z,29.50
2018-12-26T05:41:53.217Z,27.00
2018-12-26T05:42:53.200Z,27.60
2018-12-26T05:43:53.193Z,28.30
2018-12-26T05:44:53.176Z,27.00
2018-12-26T05:45:53.167Z,29.50
2018-12-26T05:46:53.153Z,26.30
2018-12-26T05:47:53.143Z,28.80
2018-12-26T05:48:53.129Z,28.00
2018-12-26T05:49:53.119Z,30.60
2018-12-26T05:50:53.106Z,28.80
2018-12-26T05:51:53.096Z,24.20
2018-12-26T05:52:53.081Z,27.90
2018-12-26T05:53:53.071Z,29.70
2018-12-26T05:54:53.062Z,27.90
2018-12-26T05:55:53.049Z,28.40
2018-12-26T05:56:53.033Z,19.30
2018-12-26T05:57:53.024Z,28.10
2018-12-26T05:58:53.010Z,28.80
2018-12-26T05:59:53.000Z,23.70
2018-12-26T06:00:52.985Z,26.00
2018-12-26T06:01:52.975Z,25.00
2018-12-26T06:02:52.961Z,31.60
2018-12-26T06:03:52.952Z,32.20
2018-12-26T06:04:52.936Z,29.00
2018-12-26T06:05:52.926Z,31.10
2018-12-26T06:06:52.913Z,33.30
2018-12-26T06:07:52.903Z,28.30
2018-12-26T06:08:52.887Z,32.70
2018-12-26T06:09:52.879Z,25.30
2018-12-26T06:10:52.864Z,33.40
2018-12-26T06:11:52.854Z,31.00
2018-12-26T06:12:52.839Z,31.10
2018-12-26T06:13:52.829Z,34.80
2018-12-26T06:14:52.819Z,35.40
2018-12-26T06:15:52.809Z,38.00
2018-12-26T06:16:52.791Z,37.30
2018-12-26T06:17:52.832Z,36.50
2018-12-26T06:18:52.767Z,32.60
2018-12-26T06:19:52.756Z,33.60
2018-12-26T06:20:52.741Z,34.80
2018-12-26T06:21:52.731Z,31.20
2018-12-26T06:22:52.722Z,36.50
2018-12-26T06:23:52.727Z,35.70
2018-12-26T06:24:52.692Z,38.70
2018-12-26T06:25:52.684Z,35.00
2018-12-26T06:26:52.668Z,36.40
2018-12-26T06:27:52.666Z,34.40
2018-12-26T06:28:52.646Z,35.10
2018-12-26T06:29:52.634Z,36.80
2018-12-26T06:30:52.620Z,38.10
2018-12-26T06:31:52.611Z,39.90
2018-12-26T06:32:52.595Z,36.10
2018-12-26T06:33:52.586Z,35.30
2018-12-26T06:34:52.572Z,35.50
2018-12-26T06:35:52.563Z,34.20
2018-12-26T06:36:52.548Z,35.60
2018-12-26T06:37:52.540Z,34.90
2018-12-26T06:38:52.524Z,36.90
2018-12-26T06:39:52.515Z,33.80
2018-12-26T06:40:52.503Z,37.70
2018-12-26T06:41:52.490Z,32.40
2018-12-26T06:42:52.478Z,30.70
2018-12-26T06:43:52.466Z,32.40
2018-12-26T06:44:52.452Z,31.00
2018-12-26T06:45:52.441Z,32.20
2018-12-26T06:46:52.427Z,33.90
2018-12-26T06:47:52.426Z,30.60
2018-12-26T06:48:52.402Z,34.30
2018-12-26T06:49:52.495Z,36.90
2018-12-26T06:50:52.379Z,34.80
2018-12-26T06:51:52.368Z,33.90
2018-12-26T06:52:52.354Z,36.00
2018-12-26T06:53:52.344Z,33.40
2018-12-26T06:54:52.330Z,31.50
2018-12-26T06:55:52.328Z,31.10
2018-12-26T06:56:52.305Z,31.80
2018-12-26T06:57:59.839Z,36.70
2018-12-26T06:58:52.282Z,29.30
2018-12-26T06:59:52.272Z,27.00
2018-12-26T07:00:52.257Z,35.50
2018-12-26T07:01:52.248Z,35.30
2018-12-26T07:02:52.233Z,36.50
2018-12-26T07:03:52.224Z,33.10
2018-12-26T07:04:52.209Z,35.60
2018-12-26T07:05:52.199Z,35.20
2018-12-26T07:06:52.185Z,25.40
2018-12-26T07:07:52.176Z,35.50
2018-12-26T07:08:52.161Z,34.00
2018-12-26T07:09:52.151Z,33.60
2018-12-26T07:10:52.137Z,36.90
2018-12-26T07:11:52.129Z,35.80
2018-12-26T07:12:52.118Z,36.40
2018-12-26T07:13:52.103Z,32.90
2018-12-26T07:14:52.089Z,34.40
2018-12-26T07:15:52.176Z,32.40
2018-12-26T07:16:52.065Z,37.60
2018-12-26T07:17:52.055Z,32.00
2018-12-26T07:18:52.041Z,29.50
2018-12-26T07:19:52.032Z,29.90
2018-12-26T07:20:52.017Z,34.80
2018-12-26T07:21:52.008Z,31.50
2018-12-26T07:22:51.997Z,32.70
2018-12-26T07:23:51.985Z,32.90
2018-12-26T07:24:51.969Z,30.80
2018-12-26T07:25:51.960Z,32.20
2018-12-26T07:26:51.945Z,35.20
2018-12-26T07:27:51.936Z,29.90
2018-12-26T07:28:51.921Z,30.80
2018-12-26T07:29:51.911Z,31.40
2018-12-26T07:30:51.897Z,34.80
2018-12-26T07:31:51.887Z,36.10
2018-12-26T07:32:51.874Z,29.10
2018-12-26T07:33:51.864Z,31.40
2018-12-26T07:34:51.848Z,35.80
2018-12-26T07:35:51.839Z,32.30
2018-12-26T07:36:51.823Z,35.30
2018-12-26T07:37:51.816Z,30.10
2018-12-26T07:38:51.806Z,35.00
2018-12-26T07:39:51.798Z,32.10
2018-12-26T07:40:51.777Z,32.20
2018-12-26T07:41:51.765Z,28.30
2018-12-26T07:42:51.751Z,30.20
2018-12-26T07:43:51.747Z,36.60
2018-12-26T07:44:51.726Z,30.00
2018-12-26T07:45:51.716Z,29.90
2018-12-26T07:46:51.702Z,34.10
2018-12-26T07:47:51.694Z,35.40
2018-12-26T07:48:51.677Z,31.50
2018-12-26T07:49:51.667Z,34.20
2018-12-26T07:50:51.656Z,34.60
2018-12-26T07:51:51.646Z,35.70
2018-12-26T07:52:51.630Z,37.90
2018-12-26T07:53:51.619Z,38.50
2018-12-26T07:54:51.605Z,41.10
2018-12-26T07:55:51.595Z,38.50
2018-12-26T07:56:51.581Z,35.00
2018-12-26T07:57:51.570Z,40.70
2018-12-26T07:58:51.558Z,39.80
2018-12-26T07:59:51.546Z,34.20
2018-12-26T08:00:51.531Z,35.50
2018-12-26T08:01:51.521Z,39.40
2018-12-26T08:02:51.507Z,28.20
2018-12-26T08:03:51.497Z,41.90
2018-12-26T08:04:51.483Z,30.70
2018-12-26T08:05:51.473Z,34.20
2018-12-26T08:06:51.459Z,41.10
2018-12-26T08:07:51.451Z,38.80
2018-12-26T08:08:51.434Z,35.10
2018-12-26T08:09:51.425Z,38.30
2018-12-26T08:10:51.412Z,41.00
2018-12-26T08:11:51.401Z,33.10
2018-12-26T08:12:51.387Z,43.20
2018-12-26T08:13:51.377Z,47.00
2018-12-26T08:14:51.364Z,42.70
2018-12-26T08:15:51.349Z,44.90
2018-12-26T08:16:53.304Z,41.90
2018-12-26T08:17:51.324Z,45.10
2018-12-26T08:18:51.315Z,42.70
2018-12-26T08:19:51.301Z,41.20
2018-12-26T08:20:51.290Z,45.90
2018-12-26T08:21:51.276Z,47.90
2018-12-26T08:22:51.266Z,27.30
2018-12-26T08:23:51.252Z,41.90
2018-12-26T08:24:51.242Z,42.30
2018-12-26T08:25:51.228Z,40.80
2018-12-26T08:26:51.218Z,34.40
2018-12-26T08:27:51.204Z,36.30
2018-12-26T08:28:51.193Z,45.00
2018-12-26T08:29:51.178Z,36.20
2018-12-26T08:30:51.169Z,33.50
2018-12-26T08:31:51.154Z,43.90
2018-12-26T08:32:51.144Z,44.60
2018-12-26T08:33:51.131Z,38.80
2018-12-26T08:34:51.121Z,39.60
2018-12-26T08:35:51.107Z,41.30
2018-12-26T08:36:51.095Z,48.10
2018-12-26T08:37:51.088Z,40.00
2018-12-26T08:38:51.072Z,46.00
2018-12-26T08:39:51.057Z,46.70
2018-12-26T08:40:51.047Z,39.00
2018-12-26T08:41:51.033Z,46.80
2018-12-26T08:42:51.023Z,45.10
2018-12-26T08:43:51.009Z,47.20
2018-12-26T08:44:50.998Z,51.20
2018-12-26T08:45:50.984Z,42.10
2018-12-26T08:46:50.976Z,49.00
2018-12-26T08:47:50.961Z,44.70
2018-12-26T08:48:50.951Z,43.40
2018-12-26T08:49:50.936Z,42.70
2018-12-26T08:50:50.927Z,38.70
2018-12-26T08:51:50.915Z,36.00
2018-12-26T08:52:50.903Z,43.70
2018-12-26T08:53:50.892Z,39.00
2018-12-26T08:54:50.888Z,39.50
2018-12-26T08:55:50.865Z,46.10
2018-12-26T08:56:50.855Z,47.20
2018-12-26T08:57:50.840Z,48.60
2018-12-26T08:58:50.833Z,44.30
2018-12-26T08:59:50.832Z,34.30
2018-12-26T09:00:50.807Z,35.60
2018-12-26T09:01:50.792Z,48.10
2018-12-26T09:02:50.783Z,40.40
2018-12-26T09:03:50.769Z,48.10
2018-12-26T09:04:50.759Z,40.10
2018-12-26T09:05:50.745Z,46.20
2018-12-26T09:06:50.735Z,48.00
2018-12-26T09:07:50.721Z,48.70
2018-12-26T09:08:50.711Z,50.10
2018-12-26T09:09:50.697Z,42.40
2018-12-26T09:10:50.688Z,44.10
2018-12-26T09:11:50.675Z,48.40
2018-12-26T09:12:50.663Z,40.30
2018-12-26T09:13:50.649Z,41.90
2018-12-26T09:14:50.640Z,47.30
2018-12-26T09:15:50.627Z,45.00
2018-12-26T09:16:50.618Z,49.10
2018-12-26T09:17:50.604Z,45.10
2018-12-26T09:18:50.594Z,46.60
2018-12-26T09:19:50.581Z,44.90
2018-12-26T09:20:50.569Z,46.40
2018-12-26T09:21:50.556Z,47.00
2018-12-26T09:22:50.546Z,47.40
2018-12-26T09:23:50.533Z,47.60
2018-12-26T09:24:50.532Z,46.70
2018-12-26T09:25:50.509Z,46.50
2018-12-26T09:26:50.499Z,44.30
2018-12-26T09:27:50.487Z,42.20
2018-12-26T09:28:50.476Z,49.70
2018-12-26T09:29:50.462Z,39.40
2018-12-26T09:30:50.453Z,42.70
2018-12-26T09:31:50.439Z,39.20
2018-12-26T09:32:50.429Z,38.70
2018-12-26T09:33:50.665Z,47.00
2018-12-26T09:34:50.406Z,43.90
2018-12-26T09:35:50.393Z,39.10
2018-12-26T09:36:50.386Z,40.00
2018-12-26T09:37:50.369Z,50.10
2018-12-26T09:38:50.359Z,44.40
2018-12-26T09:39:50.346Z,48.40
2018-12-26T09:40:50.335Z,47.50
2018-12-26T09:41:50.322Z,39.50
2018-12-26T09:42:50.313Z,45.90
2018-12-26T09:43:50.299Z,42.80
2018-12-26T09:44:54.437Z,48.10
2018-12-26T09:45:50.276Z,45.80
2018-12-26T09:46:50.267Z,49.70
2018-12-26T09:47:50.254Z,42.70
2018-12-26T09:48:50.243Z,39.00
2018-12-26T09:49:50.231Z,36.10
2018-12-26T09:50:50.221Z,41.40
2018-12-26T09:51:50.207Z,45.70
2018-12-26T09:52:50.197Z,47.90
2018-12-26T09:53:50.184Z,47.80
2018-12-26T09:54:50.175Z,43.30
2018-12-26T09:55:50.161Z,49.70
2018-12-26T09:56:50.152Z,43.50
2018-12-26T09:57:50.138Z,43.00
2018-12-26T09:58:52.660Z,48.20
2018-12-26T09:59:50.117Z,42.30
2018-12-26T10:00:50.105Z,46.40
2018-12-26T10:01:50.092Z,46.60
2018-12-26T10:02:50.083Z,43.40
2018-12-26T10:03:50.071Z,45.90
2018-12-26T10:04:50.060Z,47.40
2018-12-26T10:05:50.047Z,48.40
2018-12-26T10:06:50.038Z,46.80
2018-12-26T10:07:50.026Z,43.00
2018-12-26T10:08:50.015Z,47.70
2018-12-26T10:09:50.002Z,46.10
2018-12-26T10:10:49.993Z,43.00
2018-12-26T10:11:49.980Z,47.40
2018-12-26T10:12:49.974Z,42.80
2018-12-26T10:13:50.892Z,47.40
2018-12-26T10:14:49.949Z,44.60
2018-12-26T10:15:49.935Z,37.40
2018-12-26T10:16:49.925Z,38.30
2018-12-26T10:17:49.914Z,46.10
2018-12-26T10:18:49.917Z,43.80
2018-12-26T10:19:50.283Z,49.60
2018-12-26T10:20:49.882Z,49.80
2018-12-26T10:21:49.867Z,43.50
2018-12-26T10:22:49.859Z,44.00
2018-12-26T10:23:49.846Z,46.10
2018-12-26T10:24:49.836Z,43.20
2018-12-26T10:25:49.824Z,46.90
2018-12-26T10:26:49.817Z,52.20
2018-12-26T10:27:49.801Z,46.80
2018-12-26T10:28:49.790Z,47.70
2018-12-26T10:29:49.777Z,49.90
2018-12-26T10:30:49.768Z,49.80
2018-12-26T10:31:49.756Z,49.70
2018-12-26T10:32:50.047Z,39.30
2018-12-26T10:33:49.733Z,48.20
2018-12-26T10:34:49.725Z,45.70
2018-12-26T10:35:49.711Z,48.50
2018-12-26T10:36:49.701Z,45.10
2018-12-26T10:37:49.688Z,45.40
2018-12-26T10:38:49.680Z,51.60
2018-12-26T10:39:49.666Z,49.00
2018-12-26T10:40:49.656Z,49.20
2018-12-26T10:41:49.643Z,51.60
2018-12-26T10:42:49.634Z,50.60
2018-12-26T10:43:49.621Z,50.80
2018-12-26T10:44:49.611Z,49.70
2018-12-26T10:45:49.598Z,49.90
2018-12-26T10:46:49.589Z,50.20
2018-12-26T10:47:49.580Z,46.30
2018-12-26T10:48:49.566Z,50.70
2018-12-26T10:49:49.552Z,46.70
2018-12-26T10:50:49.544Z,51.40
2018-12-26T10:51:49.532Z,50.80
2018-12-26T10:52:49.520Z,52.30
2018-12-26T10:53:49.508Z,45.40
2018-12-26T10:54:49.500Z,46.70
2018-12-26T10:55:49.485Z,48.30
2018-12-26T10:56:49.475Z,45.50
2018-12-26T10:57:49.463Z,42.30
2018-12-26T10:58:49.454Z,44.60
2018-12-26T10:59:49.441Z,40.60
2018-12-26T11:00:49.434Z,48.50
2018-12-26T11:01:49.416Z,36.20
2018-12-26T11:02:49.409Z,43.30
2018-12-26T11:03:49.395Z,50.10
2018-12-26T11:04:49.385Z,48.40
2018-12-26T11:05:49.371Z,43.80
2018-12-26T11:06:49.361Z,41.70
2018-12-26T11:07:49.348Z,46.60
2018-12-26T11:08:49.339Z,43.30
2018-12-26T11:09:49.329Z,48.20
2018-12-26T11:10:49.316Z,43.40
2018-12-26T11:11:49.303Z,36.90
2018-12-26T11:12:49.294Z,42.10
2018-12-26T11:13:49.281Z,34.30
2018-12-26T11:14:49.270Z,38.70
2018-12-26T11:15:49.257Z,44.70
2018-12-26T11:16:49.248Z,40.70
2018-12-26T11:17:49.237Z,39.30
2018-12-26T11:18:49.225Z,45.80
2018-12-26T11:19:49.211Z,44.20
2018-12-26T11:20:49.201Z,44.70
2018-12-26T11:21:49.189Z,43.10
2018-12-26T11:22:49.180Z,43.20
2018-12-26T11:23:49.165Z,45.80
2018-12-26T11:24:49.155Z,45.70
2018-12-26T11:25:49.142Z,44.10
2018-12-26T11:26:49.135Z,40.30
2018-12-26T11:27:49.120Z,46.00
2018-12-26T11:28:49.208Z,45.80
2018-12-26T11:29:49.101Z,37.30
2018-12-26T11:30:49.087Z,47.50
2018-12-26T11:31:49.074Z,35.20
2018-12-26T11:32:49.065Z,34.00
2018-12-26T11:33:49.063Z,39.90
2018-12-26T11:34:49.042Z,41.30
2018-12-26T11:35:49.029Z,42.60
2018-12-26T11:36:49.018Z,44.40
2018-12-26T11:37:49.005Z,45.30
2018-12-26T11:38:49.007Z,42.20
2018-12-26T11:39:48.983Z,44.90
2018-12-26T11:40:48.973Z,38.30
2018-12-26T11:41:48.959Z,46.30
2018-12-26T11:42:48.951Z,47.10
2018-12-26T11:43:48.937Z,45.60
2018-12-26T11:44:48.927Z,44.10
2018-12-26T11:45:48.914Z,33.30
2018-12-26T11:46:48.904Z,44.50
2018-12-26T11:47:48.891Z,44.90
2018-12-26T11:48:48.881Z,41.00
2018-12-26T11:49:48.868Z,25.30
2018-12-26T11:50:48.859Z,44.60
2018-12-26T11:51:48.846Z,45.10
2018-12-26T11:52:48.836Z,44.70
2018-12-26T11:53:48.823Z,44.60
2018-12-26T11:54:48.813Z,42.40
2018-12-26T11:55:48.801Z,39.60
2018-12-26T11:56:48.789Z,31.20
2018-12-26T11:57:48.776Z,52.00
2018-12-26T11:58:48.767Z,49.90
2018-12-26T11:59:48.756Z,49.80
2018-12-26T12:00:48.744Z,41.90
2018-12-26T12:01:48.733Z,47.60
2018-12-26T12:02:48.722Z,44.20
2018-12-26T12:03:48.708Z,37.50
2018-12-26T12:04:48.698Z,49.30
2018-12-26T12:05:48.685Z,42.40
2018-12-26T12:06:48.678Z,48.10
2018-12-26T12:07:48.663Z,50.00
2018-12-26T12:08:48.653Z,43.60
2018-12-26T12:09:48.639Z,46.70
2018-12-26T12:10:50.167Z,25.10
2018-12-26T12:11:48.618Z,48.20
2018-12-26T12:12:48.608Z,47.30
2018-12-26T12:13:48.595Z,35.50
2018-12-26T12:14:48.587Z,47.30
2018-12-26T12:15:48.572Z,44.80
2018-12-26T12:16:48.563Z,48.10
2018-12-26T12:17:48.550Z,44.40
2018-12-26T12:18:48.541Z,46.30
2018-12-26T12:19:48.528Z,48.70
2018-12-26T12:20:48.520Z,44.30
2018-12-26T12:21:48.505Z,45.10
2018-12-26T12:22:48.496Z,49.50
2018-12-26T12:23:48.483Z,50.00
2018-12-26T12:24:48.474Z,51.60
2018-12-26T12:25:48.463Z,48.20
2018-12-26T12:26:48.451Z,44.60
2018-12-26T12:27:48.441Z,45.60
2018-12-26T12:28:48.428Z,46.70
2018-12-26T12:29:48.419Z,48.60
2018-12-26T12:30:48.406Z,51.30
2018-12-26T12:31:48.397Z,51.90
2018-12-26T12:32:48.384Z,51.70
2018-12-26T12:33:48.375Z,51.60
2018-12-26T12:34:48.361Z,48.60
2018-12-26T12:35:48.354Z,48.90
2018-12-26T12:36:48.339Z,47.40
2018-12-26T12:37:48.330Z,42.80
2018-12-26T12:38:48.320Z,49.50
2018-12-26T12:39:48.311Z,48.10
2018-12-26T12:40:48.295Z,45.30
2018-12-26T12:41:48.286Z,53.20
2018-12-26T12:42:48.274Z,51.10
2018-12-26T12:43:48.265Z,49.90
2018-12-26T12:44:48.251Z,45.00
2018-12-26T12:45:48.250Z,47.30
2018-12-26T12:46:48.233Z,54.80
2018-12-26T12:47:48.222Z,53.30
2018-12-26T12:48:48.207Z,51.50
2018-12-26T12:49:48.202Z,53.80
2018-12-26T12:50:48.186Z,49.70
2018-12-26T12:51:48.178Z,53.80
2018-12-26T12:52:48.163Z,56.50